createdAt,value
2022-10-02T00:01:32.729Z,100.00
2022-10-02T00:04:01.586Z,100.00
2022-10-02T00:06:41.849Z,100.00
2022-10-02T00:09:14.801Z,100.00
2022-10-02T00:11:48.415Z,100.00
2022-10-02T00:14:21.610Z,100.00
2022-10-02T00:16:53.736Z,100.00
2022-10-02T00:19:20.459Z,100.00
2022-10-02T00:21:57.647Z,100.00
2022-10-02T00:24:29.350Z,100.00
2022-10-02T00:27:15.749Z,100.00
2022-10-02T00:30:03.230Z,100.00
2022-10-02T00:33:11.223Z,100.00
2022-10-02T00:36:04.142Z,100.00
2022-10-02T00:39:01.938Z,100.00
2022-10-02T00:41:49.750Z,100.00
2022-10-02T00:44:57.762Z,100.00
2022-10-02T00:48:04.166Z,100.00
2022-10-02T00:50:46.563Z,100.00
2022-10-02T00:53:40.931Z,100.00
2022-10-02T00:56:20.081Z,100.00
2022-10-02T00:59:03.288Z,100.00
2022-10-02T01:01:41.553Z,100.00
2022-10-02T01:04:15.746Z,100.00
2022-10-02T01:06:42.498Z,100.00
2022-10-02T01:09:09.168Z,100.00
2022-10-02T01:11:36.882Z,100.00
2022-10-02T01:14:04.775Z,100.00
2022-10-02T01:16:32.758Z,100.00
2022-10-02T01:18:59.449Z,100.00
2022-10-02T01:21:38.114Z,100.00
2022-10-02T01:24:20.208Z,100.00
2022-10-02T01:26:46.787Z,100.00
2022-10-02T01:29:14.126Z,100.00
2022-10-02T01:31:43.257Z,100.00
2022-10-02T01:34:10.211Z,100.00
2022-10-02T01:36:37.254Z,100.00
2022-10-02T01:39:04.830Z,100.00
2022-10-02T01:41:35.282Z,100.00
2022-10-02T01:44:02.759Z,100.00
2022-10-02T01:46:49.193Z,100.00
2022-10-02T01:49:36.561Z,100.00
2022-10-02T01:52:37.329Z,100.00
2022-10-02T01:55:33.377Z,100.00
2022-10-02T01:58:25.850Z,100.00
2022-10-02T02:01:10.688Z,100.00
2022-10-02T02:03:46.472Z,100.00
2022-10-02T02:06:25.569Z,100.00
2022-10-02T02:09:07.660Z,100.00
2022-10-02T02:11:39.606Z,100.00
2022-10-02T02:14:17.366Z,100.00
2022-10-02T02:16:47.889Z,100.00
2022-10-02T02:19:24.991Z,100.00
2022-10-02T02:21:58.924Z,100.00
2022-10-02T02:25:02.584Z,100.00
2022-10-02T02:27:34.885Z,100.00
2022-10-02T02:30:06.812Z,100.00
2022-10-02T02:35:34.186Z,100.00
2022-10-02T02:38:05.651Z,100.00
2022-10-02T02:40:37.266Z,100.00
2022-10-02T02:43:09.069Z,100.00
2022-10-02T02:45:40.718Z,100.00
2022-10-02T02:48:53.952Z,100.00
2022-10-02T02:51:36.475Z,100.00
2022-10-02T02:54:08.980Z,100.00
2022-10-02T02:56:37.659Z,100.00
2022-10-02T02:59:11.050Z,100.00
2022-10-02T03:01:37.794Z,100.00
2022-10-02T03:04:04.563Z,100.00
2022-10-02T03:06:37.166Z,100.00
2022-10-02T03:09:13.753Z,100.00
2022-10-02T03:11:52.554Z,100.00
2022-10-02T03:14:46.931Z,100.00
2022-10-02T03:17:32.833Z,100.00
2022-10-02T03:20:17.646Z,100.00
2022-10-02T03:22:50.130Z,100.00
2022-10-02T03:25:26.358Z,100.00
2022-10-02T03:27:56.496Z,100.00
2022-10-02T03:30:24.546Z,100.00
2022-10-02T03:32:53.844Z,100.00
2022-10-02T03:35:22.730Z,100.00
2022-10-02T03:37:53.046Z,100.00
2022-10-02T03:40:24.655Z,100.00
2022-10-02T03:42:52.089Z,100.00
2022-10-02T03:45:39.332Z,100.00
2022-10-02T03:48:06.349Z,100.00
2022-10-02T03:50:36.190Z,100.00
2022-10-02T03:53:12.121Z,100.00
2022-10-02T03:55:40.805Z,100.00
2022-10-02T03:58:15.068Z,100.00
2022-10-02T04:01:05.871Z,100.00
2022-10-02T04:03:40.212Z,100.00
2022-10-02T04:06:15.649Z,100.00
2022-10-02T04:08:56.200Z,100.00
2022-10-02T04:11:28.279Z,100.00
2022-10-02T04:13:59.020Z,100.00
2022-10-02T04:16:33.784Z,100.00
2022-10-02T04:19:24.146Z,100.00
2022-10-02T04:21:59.718Z,100.00
2022-10-02T04:24:39.223Z,100.00
2022-10-02T04:27:25.031Z,100.00
2022-10-02T04:30:05.796Z,100.00
2022-10-02T04:32:36.971Z,100.00
2022-10-02T04:35:15.765Z,100.00
2022-10-02T04:38:07.279Z,100.00
2022-10-02T04:41:02.591Z,100.00
2022-10-02T04:43:44.381Z,100.00
2022-10-02T04:46:43.375Z,100.00
2022-10-02T04:49:40.292Z,100.00
2022-10-02T04:52:28.547Z,100.00
2022-10-02T04:55:16.821Z,100.00
2022-10-02T04:57:55.333Z,100.00
2022-10-02T05:00:23.834Z,100.00
2022-10-02T05:03:23.974Z,100.00
2022-10-02T05:06:13.637Z,100.00
2022-10-02T05:09:03.231Z,100.00
2022-10-02T05:11:58.952Z,100.00
2022-10-02T05:14:56.732Z,100.00
2022-10-02T05:17:26.278Z,100.00
2022-10-02T05:20:18.706Z,100.00
2022-10-02T05:23:03.568Z,100.00
2022-10-02T05:26:05.614Z,100.00
2022-10-02T05:28:53.920Z,100.00
2022-10-02T05:31:58.247Z,100.00
2022-10-02T05:34:38.220Z,100.00
2022-10-02T05:37:36.523Z,100.00
2022-10-02T05:40:03.016Z,100.00
2022-10-02T05:42:51.378Z,100.00
2022-10-02T05:45:34.743Z,100.00
2022-10-02T05:48:08.275Z,100.00
2022-10-02T05:50:38.019Z,100.00
2022-10-02T05:53:31.909Z,100.00
2022-10-02T05:56:09.274Z,100.00
2022-10-02T05:58:46.249Z,100.00
2022-10-02T06:01:17.777Z,100.00
2022-10-02T06:04:17.283Z,100.00
2022-10-02T06:06:49.095Z,100.00
2022-10-02T06:09:20.000Z,100.00
2022-10-02T06:12:01.860Z,100.00
2022-10-02T06:14:40.770Z,100.00
2022-10-02T06:17:16.468Z,100.00
2022-10-02T06:20:03.623Z,100.00
2022-10-02T06:22:46.552Z,100.00
2022-10-02T06:25:25.046Z,100.00
2022-10-02T06:28:02.988Z,100.00
2022-10-02T06:30:32.527Z,100.00
2022-10-02T06:33:04.582Z,100.00
2022-10-02T06:35:43.091Z,100.00
2022-10-02T06:38:25.279Z,100.00
2022-10-02T06:41:04.176Z,100.00
2022-10-02T06:43:40.593Z,100.00
2022-10-02T06:46:27.804Z,100.00
2022-10-02T06:49:00.410Z,100.00
2022-10-02T06:51:56.359Z,100.00
2022-10-02T06:54:26.150Z,100.00
2022-10-02T06:57:14.630Z,100.00
2022-10-02T07:00:03.987Z,100.00
2022-10-02T07:02:56.014Z,100.00
2022-10-02T07:05:45.575Z,100.00
2022-10-02T07:08:22.141Z,100.00
2022-10-02T07:10:57.654Z,100.00
2022-10-02T07:13:42.510Z,100.00
2022-10-02T07:16:43.249Z,100.00
2022-10-02T07:19:32.985Z,100.00
2022-10-02T07:22:45.946Z,100.00
2022-10-02T07:25:19.079Z,100.00
2022-10-02T07:28:01.117Z,100.00
2022-10-02T07:30:38.282Z,100.00
2022-10-02T07:33:07.788Z,100.00
2022-10-02T07:36:12.822Z,100.00
2022-10-02T07:38:45.277Z,100.00
2022-10-02T07:41:33.376Z,100.00
2022-10-02T07:44:12.204Z,100.00
2022-10-02T07:46:56.656Z,100.00
2022-10-02T07:49:33.316Z,100.00
2022-10-02T07:52:22.377Z,100.00
2022-10-02T07:54:56.561Z,100.00
2022-10-02T07:57:38.173Z,100.00
2022-10-02T08:00:11.741Z,100.00
2022-10-02T08:02:47.006Z,100.00
2022-10-02T08:05:18.522Z,100.00
2022-10-02T08:07:50.865Z,100.00
2022-10-02T08:10:21.962Z,100.00
2022-10-02T08:12:56.557Z,100.00
2022-10-02T08:15:25.382Z,100.00
2022-10-02T08:18:16.474Z,100.00
2022-10-02T08:20:47.937Z,100.00
2022-10-02T08:23:34.159Z,100.00
2022-10-02T08:26:09.821Z,100.00
2022-10-02T08:29:05.520Z,100.00
2022-10-02T08:31:33.148Z,100.00
2022-10-02T08:34:13.982Z,100.00
2022-10-02T08:37:02.028Z,100.00
2022-10-02T08:39:42.097Z,100.00
2022-10-02T08:42:47.894Z,100.00
2022-10-02T08:45:52.182Z,100.00
2022-10-02T08:48:55.480Z,100.00
2022-10-02T08:51:54.443Z,100.00
2022-10-02T08:54:47.043Z,100.00
2022-10-02T08:57:34.678Z,100.00
2022-10-02T09:00:22.229Z,100.00
2022-10-02T09:03:13.277Z,100.00
2022-10-02T09:05:59.332Z,100.00
2022-10-02T09:08:45.082Z,100.00
2022-10-02T09:11:19.486Z,100.00
2022-10-02T09:14:17.601Z,100.00
2022-10-02T09:17:06.195Z,100.00
2022-10-02T09:19:42.094Z,100.00
2022-10-02T09:22:48.135Z,100.00
2022-10-02T09:25:14.590Z,100.00
2022-10-02T09:28:17.779Z,100.00
2022-10-02T09:31:03.720Z,100.00
2022-10-02T09:34:04.396Z,100.00
2022-10-02T09:36:49.385Z,100.00
2022-10-02T09:39:34.186Z,100.00
2022-10-02T09:42:31.753Z,100.00
2022-10-02T09:45:22.696Z,100.00
2022-10-02T09:48:16.314Z,100.00
2022-10-02T09:51:13.449Z,100.00
2022-10-02T09:53:52.258Z,99.47
2022-10-02T09:56:37.421Z,97.74
2022-10-02T09:59:29.156Z,97.48
2022-10-02T10:02:14.888Z,99.15
2022-10-02T10:05:10.827Z,98.95
2022-10-02T10:07:55.950Z,97.76
2022-10-02T10:10:44.456Z,97.63
2022-10-02T10:13:32.867Z,98.36
2022-10-02T10:16:14.861Z,97.43
2022-10-02T10:18:50.610Z,96.51
2022-10-02T10:21:45.058Z,96.57
2022-10-02T10:24:41.133Z,96.95
2022-10-02T10:27:24.237Z,97.52
2022-10-02T10:30:00.140Z,97.33
2022-10-02T10:32:48.264Z,97.55
2022-10-02T10:35:36.678Z,98.76
2022-10-02T10:38:41.000Z,99.30
2022-10-02T10:41:28.597Z,100.00
2022-10-02T10:44:15.503Z,100.00
2022-10-02T10:47:31.206Z,100.00
2022-10-02T10:50:19.382Z,100.00
2022-10-02T10:52:56.482Z,100.00
2022-10-02T10:55:46.434Z,99.63
2022-10-02T10:58:30.165Z,99.56
2022-10-02T11:01:13.468Z,99.04
2022-10-02T11:04:01.269Z,97.45
2022-10-02T11:06:36.664Z,97.13
2022-10-02T11:09:13.946Z,97.32
2022-10-02T11:11:49.230Z,96.56
2022-10-02T11:14:22.915Z,97.77
2022-10-02T11:17:08.295Z,97.27
2022-10-02T11:19:56.457Z,97.81
2022-10-02T11:22:39.502Z,99.08
2022-10-02T11:25:12.910Z,98.57
2022-10-02T11:28:28.673Z,97.27
2022-10-02T11:31:11.800Z,98.57
2022-10-02T11:33:57.693Z,98.31
2022-10-02T11:36:45.773Z,99.46
2022-10-02T11:39:20.648Z,98.71
2022-10-02T11:42:16.390Z,100.00
2022-10-02T11:44:58.400Z,100.00
2022-10-02T11:47:53.008Z,100.00
2022-10-02T11:50:40.920Z,100.00
2022-10-02T11:53:20.765Z,99.98
2022-10-02T11:56:24.902Z,97.63
2022-10-02T11:59:07.199Z,96.92
2022-10-02T12:01:53.420Z,95.58
2022-10-02T12:04:42.339Z,94.28
2022-10-02T12:07:48.575Z,92.37
2022-10-02T12:10:52.987Z,92.88
2022-10-02T12:13:45.381Z,96.20
2022-10-02T12:16:39.446Z,100.00
2022-10-02T12:19:15.284Z,100.00
2022-10-02T12:22:44.327Z,100.00
2022-10-02T12:25:38.487Z,100.00
2022-10-02T12:28:23.113Z,100.00
2022-10-02T12:31:15.752Z,100.00
2022-10-02T12:34:14.203Z,100.00
2022-10-02T12:36:58.385Z,100.00
2022-10-02T12:39:24.904Z,100.00
2022-10-02T12:42:09.277Z,100.00
2022-10-02T12:44:49.388Z,100.00
2022-10-02T12:47:22.308Z,100.00
2022-10-02T12:50:29.940Z,100.00
2022-10-02T12:53:22.333Z,100.00
2022-10-02T12:56:26.095Z,100.00
2022-10-02T12:59:01.789Z,100.00
2022-10-02T13:01:47.122Z,100.00
2022-10-02T13:04:32.090Z,100.00
2022-10-02T13:07:31.081Z,100.00
2022-10-02T13:10:16.238Z,100.00
2022-10-02T13:12:57.206Z,100.00
2022-10-02T13:15:38.208Z,100.00
2022-10-02T13:18:17.238Z,100.00
2022-10-02T13:21:04.224Z,100.00
2022-10-02T13:23:46.955Z,100.00
2022-10-02T13:26:13.654Z,100.00
2022-10-02T13:28:52.923Z,100.00
2022-10-02T13:31:39.050Z,100.00
2022-10-02T13:34:40.522Z,100.00
2022-10-02T13:37:22.424Z,100.00
2022-10-02T13:40:03.852Z,100.00
2022-10-02T13:42:54.385Z,100.00
2022-10-02T13:45:27.290Z,100.00
2022-10-02T13:48:06.476Z,100.00
2022-10-02T13:50:57.550Z,100.00
2022-10-02T13:53:30.786Z,100.00
2022-10-02T13:56:20.891Z,100.00
2022-10-02T13:59:13.605Z,100.00
2022-10-02T14:02:09.262Z,100.00
2022-10-02T14:04:36.005Z,100.00
2022-10-02T14:07:18.930Z,100.00
2022-10-02T14:10:10.898Z,100.00
2022-10-02T14:12:50.075Z,100.00
2022-10-02T14:15:47.748Z,100.00
2022-10-02T14:18:26.607Z,100.00
2022-10-02T14:21:12.077Z,100.00
2022-10-02T14:24:10.983Z,99.99
2022-10-02T14:27:05.814Z,100.00
2022-10-02T14:29:49.146Z,99.67
2022-10-02T14:32:34.863Z,100.00
2022-10-02T14:35:38.598Z,100.00
2022-10-02T14:38:27.207Z,100.00
2022-10-02T14:40:55.848Z,99.19
2022-10-02T14:43:40.523Z,100.00
2022-10-02T14:46:38.197Z,100.00
2022-10-02T14:49:39.838Z,100.00
2022-10-02T14:52:42.757Z,100.00
2022-10-02T14:55:27.227Z,100.00
2022-10-02T14:58:09.202Z,100.00
2022-10-02T15:01:14.206Z,100.00
2022-10-02T15:03:53.524Z,100.00
2022-10-02T15:06:31.756Z,100.00
2022-10-02T15:09:13.233Z,100.00
2022-10-02T15:11:42.638Z,100.00
2022-10-02T15:14:42.794Z,100.00
2022-10-02T15:17:35.966Z,100.00
2022-10-02T15:20:11.858Z,100.00
2022-10-02T15:22:57.177Z,100.00
2022-10-02T15:25:48.683Z,100.00
2022-10-02T15:28:37.400Z,100.00
2022-10-02T15:31:18.072Z,100.00
2022-10-02T15:34:11.393Z,100.00
2022-10-02T15:36:56.340Z,100.00
2022-10-02T15:39:28.906Z,100.00
2022-10-02T15:42:05.978Z,100.00
2022-10-02T15:44:51.268Z,100.00
2022-10-02T15:47:23.978Z,100.00
2022-10-02T15:50:04.023Z,100.00
2022-10-02T15:52:52.624Z,100.00
2022-10-02T15:55:42.566Z,100.00
2022-10-02T15:58:21.337Z,100.00
2022-10-02T16:01:00.991Z,100.00
2022-10-02T16:03:34.114Z,100.00
2022-10-02T16:06:12.816Z,100.00
2022-10-02T16:09:03.870Z,100.00
2022-10-02T16:12:08.735Z,100.00
2022-10-02T16:14:53.587Z,100.00
2022-10-02T16:17:34.729Z,100.00
2022-10-02T16:20:28.270Z,100.00
2022-10-02T16:23:15.913Z,100.00
2022-10-02T16:25:58.459Z,100.00
2022-10-02T16:28:39.527Z,100.00
2022-10-02T16:31:34.018Z,100.00
2022-10-02T16:34:11.234Z,100.00
2022-10-02T16:36:52.379Z,100.00
2022-10-02T16:39:37.688Z,100.00
2022-10-02T16:42:35.203Z,100.00
2022-10-02T16:45:39.518Z,100.00
2022-10-02T16:48:21.687Z,100.00
2022-10-02T16:51:10.127Z,100.00
2022-10-02T16:54:02.604Z,100.00
2022-10-02T16:56:34.045Z,100.00
2022-10-02T16:59:12.228Z,100.00
2022-10-02T17:02:06.041Z,100.00
2022-10-02T17:04:52.470Z,100.00
2022-10-02T17:07:42.053Z,100.00
2022-10-02T17:10:19.860Z,100.00
2022-10-02T17:13:25.901Z,100.00
2022-10-02T17:15:55.956Z,100.00
2022-10-02T17:18:45.211Z,100.00
2022-10-02T17:21:22.392Z,100.00
2022-10-02T17:24:13.869Z,100.00
2022-10-02T17:26:55.686Z,100.00
2022-10-02T17:29:39.708Z,100.00
2022-10-02T17:32:08.978Z,100.00
2022-10-02T17:34:46.982Z,100.00
2022-10-02T17:37:13.463Z,100.00
2022-10-02T17:39:57.670Z,100.00
2022-10-02T17:42:47.955Z,100.00
2022-10-02T17:45:26.346Z,100.00
2022-10-02T17:48:02.312Z,100.00
2022-10-02T17:50:47.164Z,100.00
2022-10-02T17:54:02.212Z,100.00
2022-10-02T17:56:34.597Z,100.00
2022-10-02T17:59:17.175Z,100.00
2022-10-02T18:02:01.319Z,100.00
2022-10-02T18:04:30.735Z,100.00
2022-10-02T18:07:39.911Z,100.00
2022-10-02T18:10:32.339Z,100.00
2022-10-02T18:13:20.053Z,100.00
2022-10-02T18:16:02.404Z,100.00
2022-10-02T18:19:01.360Z,100.00
2022-10-02T18:21:41.960Z,100.00
2022-10-02T18:24:46.154Z,100.00
2022-10-02T18:27:31.751Z,100.00
2022-10-02T18:30:20.794Z,100.00
2022-10-02T18:33:06.167Z,100.00
2022-10-02T18:35:53.191Z,100.00
2022-10-02T18:38:33.338Z,100.00
2022-10-02T18:41:24.937Z,100.00
2022-10-02T18:43:54.472Z,100.00
2022-10-02T18:46:32.924Z,100.00
2022-10-02T18:49:14.945Z,100.00
2022-10-02T18:52:16.831Z,100.00
2022-10-02T18:54:58.576Z,100.00
2022-10-02T18:57:56.036Z,100.00
2022-10-02T19:00:26.186Z,100.00
2022-10-02T19:03:12.231Z,100.00
2022-10-02T19:05:51.064Z,100.00
2022-10-02T19:08:55.373Z,100.00
2022-10-02T19:11:28.554Z,100.00
2022-10-02T19:13:55.471Z,100.00
2022-10-02T19:16:25.928Z,100.00
2022-10-02T19:19:20.996Z,100.00
2022-10-02T19:21:48.470Z,100.00
2022-10-02T19:24:24.381Z,100.00
2022-10-02T19:26:57.191Z,100.00
2022-10-02T19:29:46.451Z,100.00
2022-10-02T19:32:21.273Z,100.00
2022-10-02T19:35:02.536Z,100.00
2022-10-02T19:37:31.707Z,100.00
2022-10-02T19:40:01.758Z,100.00
2022-10-02T19:42:32.859Z,100.00
2022-10-02T19:45:25.482Z,100.00
2022-10-02T19:48:07.367Z,100.00
2022-10-02T19:50:44.470Z,100.00
2022-10-02T19:53:24.530Z,100.00
2022-10-02T19:55:57.280Z,100.00
2022-10-02T19:58:41.747Z,100.00
2022-10-02T20:01:18.158Z,100.00
2022-10-02T20:03:46.126Z,100.00
2022-10-02T20:06:18.508Z,100.00
2022-10-02T20:08:53.978Z,100.00
2022-10-02T20:11:38.006Z,100.00
2022-10-02T20:14:26.032Z,100.00
2022-10-02T20:17:12.885Z,100.00
2022-10-02T20:19:52.881Z,100.00
2022-10-02T20:22:31.944Z,100.00
2022-10-02T20:25:14.325Z,100.00
2022-10-02T20:27:52.015Z,100.00
2022-10-02T20:30:21.322Z,100.00
2022-10-02T20:33:13.801Z,100.00
2022-10-02T20:35:46.699Z,100.00
2022-10-02T20:38:24.077Z,100.00
2022-10-02T20:40:54.713Z,100.00
2022-10-02T20:43:28.886Z,100.00
2022-10-02T20:46:28.177Z,100.00
2022-10-02T20:49:13.632Z,100.00
2022-10-02T20:51:52.900Z,100.00
2022-10-02T20:54:44.662Z,100.00
2022-10-02T20:57:49.287Z,100.00
2022-10-02T21:00:19.768Z,100.00
2022-10-02T21:03:14.219Z,100.00
2022-10-02T21:05:57.614Z,100.00
2022-10-02T21:08:54.213Z,100.00
2022-10-02T21:11:50.804Z,100.00
2022-10-02T21:14:33.882Z,100.00
2022-10-02T21:17:23.878Z,100.00
2022-10-02T21:20:53.576Z,100.00
2022-10-02T21:23:38.748Z,100.00
2022-10-02T21:26:49.507Z,100.00
2022-10-02T21:29:26.469Z,100.00
2022-10-02T21:32:10.414Z,100.00
2022-10-02T21:35:07.803Z,100.00
2022-10-02T21:38:01.547Z,100.00
2022-10-02T21:40:58.946Z,100.00
2022-10-02T21:43:34.455Z,100.00
2022-10-02T21:46:04.862Z,100.00
2022-10-02T21:48:40.935Z,100.00
2022-10-02T21:51:27.032Z,100.00
2022-10-02T21:54:30.973Z,100.00
2022-10-02T21:57:18.795Z,100.00
2022-10-02T22:00:13.650Z,100.00
2022-10-02T22:03:00.200Z,100.00
2022-10-02T22:06:05.576Z,100.00
2022-10-02T22:08:54.976Z,100.00
2022-10-02T22:11:50.912Z,100.00
2022-10-02T22:14:29.678Z,100.00
2022-10-02T22:17:08.408Z,100.00
2022-10-02T22:20:09.084Z,100.00
2022-10-02T22:22:54.604Z,100.00
2022-10-02T22:25:32.996Z,100.00
2022-10-02T22:28:21.430Z,100.00
2022-10-02T22:30:57.228Z,100.00
2022-10-02T22:33:44.328Z,100.00
2022-10-02T22:36:13.937Z,100.00
2022-10-02T22:38:51.741Z,100.00
2022-10-02T22:41:31.020Z,100.00
2022-10-02T22:44:06.882Z,100.00
2022-10-02T22:46:52.202Z,100.00
2022-10-02T22:49:37.627Z,100.00
2022-10-02T22:52:34.363Z,100.00
2022-10-02T22:55:13.114Z,100.00
2022-10-02T22:58:05.770Z,100.00
2022-10-02T23:00:49.265Z,100.00
2022-10-02T23:03:24.838Z,100.00
2022-10-02T23:06:01.691Z,100.00
2022-10-02T23:08:39.158Z,100.00
2022-10-02T23:11:21.275Z,100.00
2022-10-02T23:13:54.649Z,100.00
2022-10-02T23:16:45.161Z,100.00
2022-10-02T23:19:28.269Z,100.00
2022-10-02T23:21:58.081Z,100.00
2022-10-02T23:24:24.665Z,100.00
2022-10-02T23:26:54.898Z,100.00
2022-10-02T23:29:24.541Z,100.00
2022-10-02T23:32:04.923Z,100.00
2022-10-02T23:34:49.041Z,100.00
2022-10-02T23:37:34.115Z,100.00
2022-10-02T23:40:48.314Z,100.00
2022-10-02T23:43:24.891Z,100.00
2022-10-02T23:46:02.025Z,100.00
2022-10-02T23:48:31.426Z,100.00
2022-10-02T23:51:32.320Z,100.00
2022-10-02T23:54:20.758Z,100.00
2022-10-02T23:57:14.360Z,100.00
